Time;durP1;ratioP1;P1;durP2;ratioP2;P2;SDS_P1;SDS_P2;PMS_P1;PMS_P2;Temp;Humidity;BMP_temperature;BMP_pressure;BME280_temperature;BME280_humidity;BME280_pressure;Samples;Min_cycle;Max_cycle;Signal;HPM_P1;HPM_P2
2021/05/23 00:02:19;;;;;;;2.93;1.97;;;;;;;9.47;85.25;100132.70;128433;1101;62547;-79
2021/05/23 00:04:46;;;;;;;3.23;2.10;;;;;;;9.41;85.46;100128.13;128391;1101;62563;-79
2021/05/23 00:07:16;;;;;;;5.97;3.57;;;;;;;9.36;86.04;100132.14;128381;1101;62255;-79
2021/05/23 00:09:43;;;;;;;5.83;3.20;;;;;;;9.33;85.17;100131.70;128360;1101;62230;-79
2021/05/23 00:12:14;;;;;;;4.57;3.63;;;;;;;9.28;85.52;100136.69;128347;1101;62308;-78
2021/05/23 00:14:41;;;;;;;3.83;2.60;;;;;;;9.24;86.40;100140.70;128379;1101;62526;-79
2021/05/23 00:17:08;;;;;;;10.80;3.60;;;;;;;9.20;85.65;100134.93;128378;1101;62132;-79
2021/05/23 00:19:35;;;;;;;3.70;3.17;;;;;;;9.18;86.67;100135.13;128389;1101;63595;-79
2021/05/23 00:22:04;;;;;;;5.83;2.90;;;;;;;9.17;86.39;100128.18;128422;1101;62093;-80
2021/05/23 00:24:31;;;;;;;4.33;3.23;;;;;;;9.18;86.40;100126.38;128422;1101;62430;-80
2021/05/23 00:26:58;;;;;;;4.37;3.80;;;;;;;9.17;86.68;100128.18;128469;1101;62675;-79
2021/05/23 00:29:25;;;;;;;6.73;4.20;;;;;;;9.16;86.27;100123.91;128448;1101;61652;-80
2021/05/23 00:31:53;;;;;;;5.40;4.13;;;;;;;9.16;86.53;100128.38;128465;1101;62238;-80
2021/05/23 00:34:20;;;;;;;6.17;4.00;;;;;;;9.16;86.48;100125.73;128432;1101;63139;-79
2021/05/23 00:36:48;;;;;;;6.27;4.47;;;;;;;9.15;86.16;100124.08;128443;1101;62204;-80
2021/05/23 00:39:15;;;;;;;5.47;3.77;;;;;;;9.16;86.46;100123.09;128472;1101;62183;-79
2021/05/23 00:41:42;;;;;;;5.27;3.40;;;;;;;9.17;86.71;100127.36;128476;1101;62490;-79
2021/05/23 00:44:09;;;;;;;4.47;3.53;;;;;;;9.19;85.94;100125.36;128467;1101;62329;-80
2021/05/23 00:46:36;;;;;;;4.33;3.57;;;;;;;9.21;86.36;100128.66;128459;1101;62067;-79
2021/05/23 00:49:03;;;;;;;5.17;3.73;;;;;;;9.23;86.63;100131.95;128414;1101;62267;-80
2021/05/23 00:51:30;;;;;;;4.50;3.10;;;;;;;9.26;85.84;100131.57;128458;1101;62096;-80
2021/05/23 00:53:57;;;;;;;4.00;3.40;;;;;;;9.25;86.60;100129.94;128455;1101;62233;-81
2021/05/23 00:56:24;;;;;;;4.77;3.40;;;;;;;9.29;85.86;100131.23;128452;1101;62278;-80
2021/05/23 00:58:52;;;;;;;3.90;3.30;;;;;;;9.31;86.27;100131.05;128479;1101;62838;-81
2021/05/23 01:01:43;;;;;;;9.87;3.40;;;;;;;9.31;85.88;100123.93;128443;1101;62387;-80
2021/05/23 01:04:11;;;;;;;4.43;2.50;;;;;;;9.32;85.95;100136.14;128431;1101;62232;-80
2021/05/23 01:06:39;;;;;;;4.53;2.70;;;;;;;9.33;85.27;100132.52;128431;1101;62313;-80
2021/05/23 01:09:09;;;;;;;4.10;2.20;;;;;;;9.34;86.32;100128.84;128483;1101;62134;-79
2021/05/23 01:11:42;;;;;;;3.57;2.40;;;;;;;9.33;86.06;100136.99;128413;1101;63850;-80
2021/05/23 01:14:37;;;;;;;2.70;1.60;;;;;;;9.34;86.16;100123.55;128424;1101;62152;-80
2021/05/23 01:17:04;;;;;;;5.27;2.90;;;;;;;9.36;85.89;100129.48;128424;1101;61975;-80
2021/05/23 01:19:31;;;;;;;4.40;3.10;;;;;;;9.38;85.64;100127.48;128416;1101;62288;-79
2021/05/23 01:22:22;;;;;;;5.40;2.77;;;;;;;9.41;85.88;100130.77;128391;1102;62497;-79
2021/05/23 01:25:12;;;;;;;4.10;3.30;;;;;;;9.41;86.35;100122.83;128400;1101;62068;-79
2021/05/23 01:27:47;;;;;;;3.10;2.60;;;;;;;9.41;85.73;100133.42;128411;1101;62715;-80
2021/05/23 01:30:26;;;;;;;5.10;3.50;;;;;;;9.41;86.21;100117.54;128365;1101;62531;-79
2021/05/23 01:32:57;;;;;;;4.27;3.47;;;;;;;9.44;85.36;100125.95;128352;1096;62283;-79
2021/05/23 01:35:39;;;;;;;5.17;3.00;;;;;;;9.44;85.98;100122.48;128365;1101;64022;-78
2021/05/23 01:38:11;;;;;;;4.13;2.83;;;;;;;9.47;85.43;100124.76;128410;1101;63020;-80
2021/05/23 01:40:40;;;;;;;6.20;3.37;;;;;;;9.48;85.78;100123.73;128415;1101;62348;-81
2021/05/23 01:43:09;;;;;;;4.73;3.10;;;;;;;9.48;85.18;100124.59;128414;1101;62335;-81
2021/05/23 01:45:37;;;;;;;5.10;3.77;;;;;;;9.47;85.30;100120.28;128391;1101;62297;-80
2021/05/23 01:48:06;;;;;;;4.03;2.87;;;;;;;9.48;85.52;100121.09;128393;1101;62506;-80
2021/05/23 01:50:33;;;;;;;4.03;3.03;;;;;;;9.47;84.94;100128.22;128399;1101;62190;-81
2021/05/23 01:53:03;;;;;;;7.13;3.00;;;;;;;9.47;85.19;100130.87;128413;1101;62439;-81
2021/05/23 01:55:32;;;;;;;4.50;2.77;;;;;;;9.49;85.34;100126.22;128429;1101;63096;-80
2021/05/23 01:58:00;;;;;;;5.07;3.33;;;;;;;9.48;85.51;100139.63;128473;1101;62330;-80
2021/05/23 02:00:37;;;;;;;3.50;3.00;;;;;;;9.45;85.76;100140.81;128431;1101;62136;-81
2021/05/23 02:03:09;;;;;;;2.93;2.10;;;;;;;9.44;85.02;100133.08;128469;1101;62489;-82
2021/05/23 02:05:44;;;;;;;4.90;2.83;;;;;;;9.45;85.28;100129.41;128346;1101;62711;-82
2021/05/23 02:08:14;;;;;;;3.83;2.83;;;;;;;9.45;85.09;100134.70;128427;1101;62199;-81
2021/05/23 02:10:42;;;;;;;4.13;3.07;;;;;;;9.44;85.01;100123.30;128215;1101;62226;-80
2021/05/23 02:13:10;;;;;;;4.53;3.27;;;;;;;9.42;85.48;100119.20;128404;1101;62272;-80
2021/05/23 02:15:38;;;;;;;9.80;3.07;;;;;;;9.40;85.54;100132.61;128429;1101;62574;-80
2021/05/23 02:18:07;;;;;;;3.80;3.00;;;;;;;9.38;86.06;100132.78;128415;1101;62102;-81
2021/05/23 02:20:35;;;;;;;5.10;3.10;;;;;;;9.37;86.42;100131.15;128385;1101;62491;-81
2021/05/23 02:23:12;;;;;;;4.87;3.10;;;;;;;9.37;86.80;100133.80;128473;1101;62119;-81
2021/05/23 02:25:39;;;;;;;4.87;3.23;;;;;;;9.36;86.47;100121.55;128441;1101;62115;-81
2021/05/23 02:28:08;;;;;;;4.20;3.03;;;;;;;9.34;86.65;100117.45;128423;1101;62777;-82
2021/05/23 02:30:44;;;;;;;6.17;3.23;;;;;;;9.32;86.89;100119.45;128423;1101;62599;-81
2021/05/23 02:33:13;;;;;;;4.10;2.97;;;;;;;9.28;86.72;100126.92;128413;1101;62050;-79
2021/05/23 02:35:44;;;;;;;4.00;3.10;;;;;;;9.26;87.07;100147.45;128392;1101;62775;-79
2021/05/23 02:38:13;;;;;;;4.50;3.10;;;;;;;9.17;89.19;100143.24;128384;1101;62390;-82
2021/05/23 02:40:42;;;;;;;3.37;2.57;;;;;;;9.08;89.90;100144.33;128450;1101;62606;-83
2021/05/23 02:43:11;;;;;;;3.90;3.37;;;;;;;9.00;90.36;100147.04;128433;1101;62082;-82
2021/05/23 02:45:39;;;;;;;2.50;1.93;;;;;;;8.88;89.29;100142.17;128461;1101;62752;-82
2021/05/23 02:48:07;;;;;;;4.57;2.53;;;;;;;8.82;90.14;100142.88;128359;1101;62356;-82
2021/05/23 02:50:37;;;;;;;3.57;1.80;;;;;;;8.73;89.19;100142.13;128450;1101;61984;-82
2021/05/23 02:53:06;;;;;;;2.97;1.87;;;;;;;8.66;88.93;100150.92;128401;1101;62416;-82
2021/05/23 02:55:39;;;;;;;3.17;1.80;;;;;;;8.59;89.80;100157.92;128407;1101;62307;-81
2021/05/23 02:58:07;;;;;;;2.40;1.70;;;;;;;8.54;89.23;100158.42;128462;1101;62239;-81
2021/05/23 03:00:34;;;;;;;3.80;2.10;;;;;;;8.50;89.73;100157.97;128473;1101;62383;-82
2021/05/23 03:03:03;;;;;;;2.63;1.93;;;;;;;8.46;90.15;100158.47;128525;1101;62182;-82
2021/05/23 03:05:30;;;;;;;4.27;2.07;;;;;;;8.43;89.71;100157.00;128479;1101;62147;-82
2021/05/23 03:07:58;;;;;;;3.67;2.20;;;;;;;8.42;90.18;100165.13;128460;1101;62090;-83
2021/05/23 03:10:32;;;;;;;4.20;2.17;;;;;;;8.39;90.60;100168.88;128456;1101;62098;-82
2021/05/23 03:13:01;;;;;;;3.20;2.07;;;;;;;8.37;91.35;100173.52;128471;1101;62328;-81
2021/05/23 03:15:29;;;;;;;5.27;3.13;;;;;;;8.34;90.82;100173.88;128470;1101;62231;-81
2021/05/23 03:17:57;;;;;;;4.10;2.47;;;;;;;8.35;91.16;100172.87;128433;1101;63104;-81
2021/05/23 03:20:26;;;;;;;4.07;2.87;;;;;;;8.34;91.14;100179.98;128479;1101;63478;-81
2021/05/23 03:22:56;;;;;;;5.10;3.73;;;;;;;8.35;91.09;100180.80;128421;1101;62357;-81
2021/05/23 03:25:24;;;;;;;5.53;2.80;;;;;;;8.35;91.66;100186.92;128416;1101;62246;-82
2021/05/23 03:27:52;;;;;;;6.10;3.40;;;;;;;8.39;91.01;100182.09;128456;1101;62604;-82
2021/05/23 03:30:23;;;;;;;8.27;4.10;;;;;;;8.43;90.73;100179.97;128435;1101;62861;-82
2021/05/23 03:32:51;;;;;;;5.70;3.10;;;;;;;8.46;90.63;100187.55;128451;1101;62201;-80
2021/05/23 03:35:18;;;;;;;5.10;3.57;;;;;;;8.49;91.12;100192.50;128364;1101;63760;-81
2021/05/23 03:37:45;;;;;;;5.57;3.57;;;;;;;8.54;90.62;100198.92;128462;1101;62076;-81
2021/05/23 03:40:16;;;;;;;5.40;3.10;;;;;;;8.59;91.35;100213.44;128503;1101;62660;-81
2021/05/23 03:42:46;;;;;;;4.87;2.97;;;;;;;8.55;91.28;100210.31;128466;1101;62091;-82
2021/05/23 03:45:19;;;;;;;6.63;4.30;;;;;;;8.56;91.13;100219.88;128333;1101;62291;-82
2021/05/23 03:47:46;;;;;;;9.30;4.40;;;;;;;8.60;91.21;100225.65;128444;1101;62291;-81
2021/05/23 03:50:18;;;;;;;5.60;4.20;;;;;;;8.61;91.15;100217.55;128378;1101;62347;-84
2021/05/23 03:52:47;;;;;;;7.87;4.47;;;;;;;8.61;91.28;100220.20;128474;1101;62314;-81
2021/05/23 03:55:15;;;;;;;6.20;4.00;;;;;;;8.62;91.46;100215.72;128502;1101;62197;-81
2021/05/23 03:57:42;;;;;;;7.97;3.93;;;;;;;8.64;91.51;100227.77;128424;1101;62929;-81
2021/05/23 04:00:10;;;;;;;6.00;4.27;;;;;;;8.63;90.96;100228.78;128403;1101;63380;-82
2021/05/23 04:02:38;;;;;;;4.53;3.57;;;;;;;8.61;92.10;100225.48;128488;1101;61983;-81
2021/05/23 04:05:06;;;;;;;7.57;4.03;;;;;;;8.59;91.96;100230.13;128429;1101;62187;-82
2021/05/23 04:07:33;;;;;;;11.10;4.70;;;;;;;8.62;91.85;100239.52;128468;1101;62667;-82
2021/05/23 04:10:03;;;;;;;7.75;4.45;;;;;;;8.64;90.93;100232.24;128431;1101;62641;-81
2021/05/23 04:12:35;;;;;;;5.00;3.33;;;;;;;8.67;91.16;100237.17;128442;1101;62264;-81
2021/05/23 04:15:03;;;;;;;7.07;3.70;;;;;;;8.67;91.68;100223.95;128418;1101;62426;-78
2021/05/23 04:17:30;;;;;;;5.20;3.40;;;;;;;8.69;90.55;100235.17;128430;1101;62309;-79
2021/05/23 04:19:59;;;;;;;6.33;3.63;;;;;;;8.70;90.58;100242.13;128426;1101;62457;-80
2021/05/23 04:22:26;;;;;;;6.00;3.97;;;;;;;8.72;90.71;100237.48;128474;1101;61674;-79
2021/05/23 04:24:53;;;;;;;6.13;2.87;;;;;;;8.75;90.53;100242.42;128530;1101;62263;-79
2021/05/23 04:27:20;;;;;;;9.40;5.17;;;;;;;8.75;90.37;100250.35;128431;1101;62229;-79
2021/05/23 04:29:47;;;;;;;6.77;4.03;;;;;;;8.76;89.50;100254.66;128495;1101;62372;-79
2021/05/23 04:32:14;;;;;;;4.47;3.17;;;;;;;8.76;89.82;100254.66;128514;1101;62091;-80
2021/05/23 04:34:41;;;;;;;5.63;3.30;;;;;;;8.76;89.97;100260.77;128336;1101;62226;-80
2021/05/23 04:37:08;;;;;;;6.87;2.73;;;;;;;8.75;89.63;100264.39;128410;1101;62214;-80
2021/05/23 04:39:35;;;;;;;6.20;3.37;;;;;;;8.80;89.17;100258.60;128452;1101;62211;-79
2021/05/23 04:42:03;;;;;;;7.50;3.20;;;;;;;8.87;89.66;100270.13;128459;1101;62183;-79
2021/05/23 04:44:51;;;;;;;8.00;3.43;;;;;;;8.94;88.93;100270.25;128461;1101;63416;-79
2021/05/23 04:47:18;;;;;;;5.47;1.90;;;;;;;8.94;88.74;100271.06;128408;1101;63115;-79
2021/05/23 04:49:45;;;;;;;5.70;3.40;;;;;;;9.00;89.20;100271.38;128428;1101;62282;-79
2021/05/23 04:52:14;;;;;;;8.33;2.70;;;;;;;9.03;88.38;100278.95;128423;1101;62485;-78
2021/05/23 04:54:42;;;;;;;7.87;2.23;;;;;;;9.07;87.57;100280.25;128420;1101;62041;-79
2021/05/23 04:57:09;;;;;;;7.20;2.20;;;;;;;9.12;88.20;100283.22;128434;1101;62845;-78
2021/05/23 04:59:37;;;;;;;7.60;3.17;;;;;;;9.16;87.67;100287.97;128376;1101;62883;-79
2021/05/23 05:02:04;;;;;;;5.87;2.10;;;;;;;9.20;86.88;100285.78;128434;1101;62198;-79
2021/05/23 05:04:31;;;;;;;3.43;2.10;;;;;;;9.27;86.91;100297.33;128372;1101;62724;-79
2021/05/23 05:06:58;;;;;;;6.43;3.63;;;;;;;9.30;86.18;100302.26;128397;1101;62226;-78
2021/05/23 05:09:26;;;;;;;9.37;3.03;;;;;;;9.31;86.95;100295.16;128401;1101;62909;-79
2021/05/23 05:11:53;;;;;;;3.27;2.07;;;;;;;9.32;86.50;100310.84;128445;1101;62222;-78
2021/05/23 05:14:20;;;;;;;6.60;2.40;;;;;;;9.30;85.96;100317.32;128428;1101;62724;-79
2021/05/23 05:16:47;;;;;;;8.93;2.57;;;;;;;9.29;85.52;100316.50;128410;1101;62530;-79
2021/05/23 05:19:15;;;;;;;7.83;2.70;;;;;;;9.26;86.45;100322.13;128405;1101;62584;-79
2021/05/23 05:21:42;;;;;;;6.30;2.37;;;;;;;9.29;85.75;100327.09;128355;1101;61988;-81
2021/05/23 05:24:10;;;;;;;4.97;2.23;;;;;;;9.33;85.94;100333.69;128417;1101;62178;-79
2021/05/23 05:26:39;;;;;;;7.17;2.63;;;;;;;9.40;86.09;100333.80;128486;1101;62642;-80
2021/05/23 05:29:06;;;;;;;6.33;3.57;;;;;;;9.47;85.54;100339.22;128499;1101;62311;-80
2021/05/23 05:31:33;;;;;;;6.27;1.93;;;;;;;9.56;84.81;100338.14;128487;1101;62902;-80
2021/05/23 05:34:01;;;;;;;3.57;1.93;;;;;;;9.63;85.24;100347.05;128444;1101;62885;-79
2021/05/23 05:36:28;;;;;;;6.13;2.40;;;;;;;9.67;84.58;100345.69;128353;1101;62514;-80
2021/05/23 05:38:55;;;;;;;6.73;3.27;;;;;;;9.69;83.52;100354.28;128473;1101;62221;-81
2021/05/23 05:41:23;;;;;;;6.37;2.57;;;;;;;9.66;83.55;100362.56;128431;1101;62680;-81
2021/05/23 05:43:51;;;;;;;5.43;2.10;;;;;;;9.66;83.53;100353.81;128497;1101;62411;-80
2021/05/23 05:46:19;;;;;;;8.73;2.70;;;;;;;9.64;83.01;100363.75;128351;1101;63546;-80
2021/05/23 05:48:46;;;;;;;11.53;2.77;;;;;;;9.65;84.05;100362.73;128435;1101;62293;-80
2021/05/23 05:51:13;;;;;;;6.73;3.60;;;;;;;9.66;83.14;100354.63;128452;1101;62362;-80
2021/05/23 05:53:40;;;;;;;5.13;2.20;;;;;;;9.68;82.66;100368.52;128485;1101;62466;-81
2021/05/23 05:56:08;;;;;;;6.30;2.27;;;;;;;9.73;83.06;100371.47;128438;1101;62123;-81
2021/05/23 05:58:36;;;;;;;5.40;2.30;;;;;;;9.78;82.97;100371.75;128506;1101;62083;-81
2021/05/23 06:01:03;;;;;;;5.77;2.20;;;;;;;9.86;82.49;100373.52;128439;1101;63054;-81
2021/05/23 06:03:31;;;;;;;7.87;2.47;;;;;;;9.93;82.41;100381.58;128454;1101;63373;-80
2021/05/23 06:05:58;;;;;;;7.53;2.60;;;;;;;9.93;81.97;100377.09;128370;1101;62741;-81
2021/05/23 06:08:26;;;;;;;6.70;2.70;;;;;;;9.97;81.93;100374.92;128415;1101;62260;-80
2021/05/23 06:10:53;;;;;;;6.50;3.03;;;;;;;10.05;82.28;100380.16;128421;1101;63398;-81
2021/05/23 06:13:20;;;;;;;4.03;1.90;;;;;;;10.08;82.13;100379.78;128420;1101;64115;-80
2021/05/23 06:15:47;;;;;;;9.83;2.63;;;;;;;10.10;80.80;100388.38;128429;1101;62051;-81
2021/05/23 06:18:14;;;;;;;7.23;2.13;;;;;;;10.16;82.15;100386.85;128451;1101;62079;-80
2021/05/23 06:20:41;;;;;;;5.33;2.57;;;;;;;10.19;81.29;100395.24;128401;1101;62222;-80
2021/05/23 06:23:08;;;;;;;5.70;2.97;;;;;;;10.24;80.71;100399.19;128443;1101;62897;-80
2021/05/23 06:25:35;;;;;;;4.70;2.60;;;;;;;10.28;80.09;100406.59;128512;1101;62620;-80
2021/05/23 06:28:02;;;;;;;4.37;2.20;;;;;;;10.37;79.65;100416.17;128473;1101;62358;-81
2021/05/23 06:30:30;;;;;;;6.27;2.23;;;;;;;10.47;79.10;100402.63;128437;1101;63063;-81
2021/05/23 06:32:57;;;;;;;7.17;2.70;;;;;;;10.61;78.24;100412.44;128475;1101;62591;-81
2021/05/23 06:35:24;;;;;;;4.23;1.93;;;;;;;10.70;76.38;100404.39;128513;1101;62141;-81
2021/05/23 06:37:51;;;;;;;5.87;2.20;;;;;;;10.77;77.47;100411.45;128483;1101;62187;-81
2021/05/23 06:40:18;;;;;;;6.17;2.60;;;;;;;10.83;76.26;100415.19;128419;1101;62085;-82
2021/05/23 06:42:45;;;;;;;9.27;3.20;;;;;;;10.90;76.69;100416.11;128377;1101;62595;-82
2021/05/23 06:45:13;;;;;;;6.57;3.07;;;;;;;10.91;74.03;100416.94;128444;1101;62581;-82
2021/05/23 06:47:39;;;;;;;5.70;1.77;;;;;;;10.92;76.09;100424.72;128390;1101;62535;-82
2021/05/23 06:50:07;;;;;;;6.20;1.97;;;;;;;10.92;75.07;100423.88;128460;1101;63121;-82
2021/05/23 06:52:35;;;;;;;4.43;2.00;;;;;;;10.85;75.24;100423.79;128461;1101;62514;-81
2021/05/23 06:55:04;;;;;;;7.07;2.53;;;;;;;10.89;75.07;100432.22;128361;1101;62337;-81
2021/05/23 06:57:31;;;;;;;6.27;1.70;;;;;;;10.90;74.87;100429.39;128473;1101;62086;-82
2021/05/23 06:59:59;;;;;;;6.03;2.50;;;;;;;11.00;74.82;100437.87;128470;1101;62726;-82
2021/05/23 07:02:26;;;;;;;6.40;2.50;;;;;;;11.13;75.23;100436.40;128396;1101;62201;-75
2021/05/23 07:04:53;;;;;;;6.90;2.30;;;;;;;11.21;73.75;100446.92;128349;1101;62531;-75
2021/05/23 07:07:20;;;;;;;6.30;3.17;;;;;;;11.22;73.81;100444.09;128349;1101;62103;-75
2021/05/23 07:09:47;;;;;;;5.00;2.77;;;;;;;11.12;73.10;100440.08;128389;1101;62259;-75
2021/05/23 07:12:15;;;;;;;5.53;2.30;;;;;;;11.13;72.40;100441.70;128320;1101;62853;-76
2021/05/23 07:14:42;;;;;;;5.07;1.90;;;;;;;11.33;73.21;100437.48;128332;1101;62207;-75
2021/05/23 07:17:09;;;;;;;5.53;2.10;;;;;;;11.59;70.15;100446.76;128356;1101;63132;-76
2021/05/23 07:19:36;;;;;;;5.87;2.73;;;;;;;11.61;68.71;100434.11;128412;1101;62638;-76
2021/05/23 07:22:03;;;;;;;4.50;1.87;;;;;;;11.65;69.89;100435.38;128378;1101;62054;-76
2021/05/23 07:24:30;;;;;;;8.00;2.90;;;;;;;11.65;69.08;100443.36;128409;1101;62055;-76
2021/05/23 07:26:57;;;;;;;6.87;2.20;;;;;;;11.68;70.17;100436.83;128371;1101;62345;-76
2021/05/23 07:29:24;;;;;;;2.80;1.70;;;;;;;11.66;69.22;100439.67;128418;1101;62068;-76
2021/05/23 07:31:51;;;;;;;5.73;2.33;;;;;;;11.72;70.36;100438.11;128375;1101;62121;-76
2021/05/23 07:34:18;;;;;;;4.30;2.30;;;;;;;11.77;69.06;100441.85;128437;1101;62017;-76
2021/05/23 07:36:45;;;;;;;4.37;2.47;;;;;;;11.83;67.23;100443.73;128350;1101;63053;-76
2021/05/23 07:39:16;;;;;;;5.00;2.00;;;;;;;11.88;66.99;100456.51;128333;1101;62837;-76
2021/05/23 07:41:44;;;;;;;4.57;2.20;;;;;;;11.92;67.23;100456.93;128372;1101;62213;-75
2021/05/23 07:44:11;;;;;;;3.17;1.87;;;;;;;11.98;67.75;100461.48;128367;1101;62382;-75
2021/05/23 07:46:38;;;;;;;2.97;1.50;;;;;;;11.94;66.63;100473.52;128345;1101;62347;-75
2021/05/23 07:49:05;;;;;;;5.43;2.40;;;;;;;12.00;67.48;100480.73;128410;1101;62063;-76
2021/05/23 07:51:32;;;;;;;4.23;1.30;;;;;;;12.00;67.36;100472.76;128390;1101;62191;-76
2021/05/23 07:53:59;;;;;;;4.63;1.67;;;;;;;12.03;66.73;100485.69;128417;1101;62107;-76
2021/05/23 07:56:26;;;;;;;4.90;2.40;;;;;;;12.08;65.14;100483.27;128387;1101;62237;-76
2021/05/23 07:58:53;;;;;;;4.47;2.17;;;;;;;12.12;65.35;100481.88;128439;1101;62397;-75
2021/05/23 08:01:20;;;;;;;5.90;2.43;;;;;;;12.15;64.07;100486.80;128361;1101;62222;-75
2021/05/23 08:03:47;;;;;;;6.33;3.03;;;;;;;12.20;64.19;100487.08;128385;1101;62101;-75
2021/05/23 08:06:16;;;;;;;4.53;2.13;;;;;;;12.39;65.39;100490.11;128430;1101;62121;-75
2021/05/23 08:08:43;;;;;;;3.23;2.07;;;;;;;12.51;64.46;100499.19;128431;1101;62044;-75
2021/05/23 08:11:10;;;;;;;2.97;1.47;;;;;;;12.53;64.18;100494.50;128417;1101;62400;-76
2021/05/23 08:13:38;;;;;;;4.50;2.10;;;;;;;12.74;64.66;100490.16;128378;1101;62413;-75
2021/05/23 08:16:07;;;;;;;5.07;2.00;;;;;;;12.97;63.79;100496.05;128271;1101;62390;-76
2021/05/23 08:18:34;;;;;;;5.43;2.30;;;;;;;13.14;63.16;100503.73;128382;1101;62231;-76
2021/05/23 08:21:03;;;;;;;4.03;2.20;;;;;;;13.36;61.72;100499.16;128282;1101;62168;-76
2021/05/23 08:23:31;;;;;;;4.10;1.87;;;;;;;13.50;62.25;100503.53;128329;1101;62243;-76
2021/05/23 08:25:59;;;;;;;4.40;2.00;;;;;;;13.48;60.99;100504.75;128392;1101;62442;-76
2021/05/23 08:28:30;;;;;;;4.23;2.20;;;;;;;13.31;60.31;100505.08;128383;1101;62220;-76
2021/05/23 08:30:58;;;;;;;4.00;1.70;;;;;;;13.15;60.37;100508.84;128377;1101;62737;-77
2021/05/23 08:33:25;;;;;;;3.60;1.83;;;;;;;13.00;62.56;100513.47;128431;1101;62500;-77
2021/05/23 08:35:52;;;;;;;3.13;1.60;;;;;;;12.86;61.16;100512.58;128388;1101;62429;-76
2021/05/23 08:38:19;;;;;;;2.80;1.33;;;;;;;12.72;60.65;100516.97;128374;1101;62851;-77
2021/05/23 08:40:47;;;;;;;4.17;2.03;;;;;;;12.65;63.56;100516.10;128286;1101;64167;-77
2021/05/23 08:43:15;;;;;;;4.67;2.27;;;;;;;12.56;65.29;100507.44;128341;1101;62299;-77
2021/05/23 08:45:42;;;;;;;5.70;2.17;;;;;;;12.44;65.69;100519.61;128334;1101;62859;-77
2021/05/23 08:48:11;;;;;;;4.10;2.10;;;;;;;12.34;66.21;100527.08;128345;1101;62311;-77
2021/05/23 08:50:38;;;;;;;6.60;2.20;;;;;;;12.36;67.32;100525.06;128364;1101;62811;-76
2021/05/23 08:53:05;;;;;;;4.93;2.47;;;;;;;12.33;66.34;100528.11;128348;1101;62303;-76
2021/05/23 08:55:35;;;;;;;3.60;2.53;;;;;;;12.32;67.71;100531.77;128470;1101;62098;-76
2021/05/23 08:58:02;;;;;;;2.70;2.10;;;;;;;12.27;66.79;100532.34;128352;1101;62533;-76
2021/05/23 09:00:30;;;;;;;3.53;2.43;;;;;;;12.18;67.75;100536.16;128375;1101;62802;-76
2021/05/23 09:03:05;;;;;;;2.73;2.10;;;;;;;12.06;68.97;100538.47;128355;1101;62095;-76
2021/05/23 09:05:36;;;;;;;;;;;;;;;11.83;69.86;100542.06;128365;1101;62064;-75
2021/05/23 09:08:08;;;;;;;5.30;1.80;;;;;;;11.66;70.56;100547.80;128391;1101;62115;-76
2021/05/23 09:10:38;;;;;;;6.70;4.10;;;;;;;11.54;71.31;100545.63;128406;1101;62168;-74
2021/05/23 09:13:06;;;;;;;2.93;2.00;;;;;;;11.46;71.89;100547.55;128378;1101;62101;-77
2021/05/23 09:15:33;;;;;;;3.57;2.10;;;;;;;11.40;72.62;100544.61;128340;1101;62523;-77
2021/05/23 09:18:12;;;;;;;2.13;1.33;;;;;;;11.42;73.21;100553.22;128346;1101;62147;-76
2021/05/23 09:20:42;;;;;;;4.23;2.27;;;;;;;11.48;72.85;100556.16;128382;1101;62193;-76
2021/05/23 09:23:19;;;;;;;2.60;2.10;;;;;;;11.53;72.13;100556.42;128417;1101;62059;-77
2021/05/23 09:25:47;;;;;;;5.10;2.40;;;;;;;11.62;71.89;100560.62;128335;1101;62135;-76
2021/05/23 09:28:14;;;;;;;3.20;2.23;;;;;;;11.81;71.90;100562.69;128345;1101;62910;-76
2021/05/23 09:30:45;;;;;;;3.83;2.40;;;;;;;12.06;70.44;100562.40;128350;1101;62121;-77
2021/05/23 09:33:22;;;;;;;2.57;1.80;;;;;;;12.37;70.49;100546.16;128391;1101;62087;-76
2021/05/23 09:35:49;;;;;;;2.73;1.60;;;;;;;12.62;68.92;100554.58;128414;1101;62155;-76
2021/05/23 09:38:18;;;;;;;3.87;1.90;;;;;;;12.75;69.20;100555.67;128418;1101;62074;-76
2021/05/23 09:40:45;;;;;;;3.23;1.80;;;;;;;12.71;66.78;100562.39;128405;1101;62080;-77
2021/05/23 09:43:21;;;;;;;4.07;1.80;;;;;;;12.60;66.76;100564.59;128395;1101;62571;-76
2021/05/23 09:45:51;;;;;;;3.63;1.77;;;;;;;12.54;67.16;100572.52;128437;1101;62200;-77
2021/05/23 09:48:20;;;;;;;5.37;2.00;;;;;;;12.58;67.68;100579.07;128449;1101;62800;-77
2021/05/23 09:50:51;;;;;;;3.83;2.40;;;;;;;12.64;67.44;100573.83;128383;1101;62223;-77
2021/05/23 09:53:33;;;;;;;2.53;1.87;;;;;;;12.65;66.26;100574.66;128147;1101;62666;-77
2021/05/23 09:56:14;;;;;;;4.73;2.10;;;;;;;12.70;65.69;100579.39;128360;1101;62158;-77
2021/05/23 09:58:47;;;;;;;3.30;1.70;;;;;;;12.74;66.16;100578.00;128398;1101;62921;-77
2021/05/23 10:01:31;;;;;;;2.07;1.50;;;;;;;12.95;65.60;100593.94;128394;1101;63670;-77
2021/05/23 10:04:00;;;;;;;2.70;1.50;;;;;;;13.36;63.81;100587.89;128404;1101;62111;-77
2021/05/23 10:06:29;;;;;;;2.67;1.73;;;;;;;13.71;62.46;100584.38;128437;1101;62840;-77
2021/05/23 10:08:57;;;;;;;3.43;1.60;;;;;;;13.81;61.47;100591.02;128397;1101;62058;-77
2021/05/23 10:11:26;;;;;;;3.40;1.50;;;;;;;13.68;61.57;100596.27;128413;1101;62335;-76
2021/05/23 10:13:54;;;;;;;3.80;1.77;;;;;;;13.56;61.40;100617.34;128449;1101;62211;-76
2021/05/23 10:16:23;;;;;;;3.33;1.63;;;;;;;13.48;61.35;100603.34;128403;1101;62108;-76
2021/05/23 10:18:51;;;;;;;1.90;1.30;;;;;;;13.34;62.69;100605.91;128438;1101;62220;-77
2021/05/23 10:21:19;;;;;;;2.30;1.10;;;;;;;13.41;63.61;100608.64;128405;1101;62534;-76
2021/05/23 10:23:51;;;;;;;2.93;1.87;;;;;;;13.39;63.22;100608.83;128396;1101;62268;-77
2021/05/23 10:26:23;;;;;;;2.60;1.30;;;;;;;13.46;63.85;100619.53;128355;1101;62114;-76
2021/05/23 10:28:51;;;;;;;3.17;1.50;;;;;;;13.44;62.83;100611.72;128397;1101;61733;-76
2021/05/23 10:31:30;;;;;;;2.00;1.30;;;;;;;13.34;62.72;100616.56;128432;1101;62519;-77
2021/05/23 10:33:57;;;;;;;3.13;1.40;;;;;;;13.38;64.37;100623.16;128387;1101;62145;-77
2021/05/23 10:36:39;;;;;;;1.90;1.23;;;;;;;13.33;63.55;100625.59;128390;1101;62261;-76
2021/05/23 10:39:11;;;;;;;1.63;1.27;;;;;;;13.29;63.42;100623.52;128444;1101;62665;-76
2021/05/23 10:41:38;;;;;;;1.27;0.97;;;;;;;13.35;64.87;100628.89;128421;1101;62339;-76
2021/05/23 10:44:23;;;;;;;;;;;;;;;13.41;63.01;100622.78;128455;1101;62827;-75
2021/05/23 10:46:50;;;;;;;1.50;1.10;;;;;;;13.44;63.12;100632.22;128445;1101;62152;-76
2021/05/23 10:49:18;;;;;;;3.10;1.00;;;;;;;13.48;63.89;100627.33;128388;1101;62023;-75
2021/05/23 10:51:56;;;;;;;1.93;1.10;;;;;;;13.34;64.29;100624.56;128416;1101;62511;-76
2021/05/23 10:54:24;;;;;;;1.97;1.20;;;;;;;13.29;64.56;100634.17;128386;1101;62253;-76
2021/05/23 10:57:02;;;;;;;1.70;1.00;;;;;;;13.29;64.53;100642.98;128395;1101;64718;-77
2021/05/23 10:59:31;;;;;;;1.77;1.00;;;;;;;13.28;63.79;100651.13;128364;1101;62222;-76
2021/05/23 11:01:59;;;;;;;2.80;1.07;;;;;;;13.19;64.47;100653.11;128451;1101;62836;-76
2021/05/23 11:04:40;;;;;;;1.70;1.27;;;;;;;12.92;63.89;100660.90;128418;1101;62244;-76
2021/05/23 11:07:12;;;;;;;1.40;0.97;;;;;;;12.66;65.24;100656.13;128426;1101;62104;-76
2021/05/23 11:09:42;;;;;;;2.37;1.10;;;;;;;12.58;65.46;100665.07;128389;1101;62314;-76
2021/05/23 11:12:13;;;;;;;1.20;0.80;;;;;;;12.52;65.56;100662.34;128386;1101;62440;-76
2021/05/23 11:14:41;;;;;;;1.80;1.30;;;;;;;12.46;65.37;100666.57;128438;1101;62876;-77
2021/05/23 11:17:10;;;;;;;1.70;1.10;;;;;;;12.35;66.19;100670.55;128436;1101;62959;-77
2021/05/23 11:19:38;;;;;;;1.63;1.00;;;;;;;12.27;66.54;100675.16;128423;1101;62200;-76
2021/05/23 11:22:05;;;;;;;4.37;1.20;;;;;;;12.20;66.45;100667.92;128379;1101;62373;-76
2021/05/23 11:24:35;;;;;;;2.83;1.03;;;;;;;12.18;66.80;100674.44;128372;1101;62260;-76
2021/05/23 11:27:11;;;;;;;1.57;0.80;;;;;;;12.15;67.41;100685.43;128369;1101;62137;-75
2021/05/23 11:29:46;;;;;;;1.30;0.80;;;;;;;12.02;66.63;100688.74;128414;1101;62388;-77
2021/05/23 11:32:15;;;;;;;1.40;0.90;;;;;;;11.98;66.97;100692.77;128365;1101;62388;-76